createdAt,value
2019-04-10T00:02:19.985Z,11.38
2019-04-10T00:04:50.119Z,11.04
2019-04-10T00:07:19.809Z,10.97
2019-04-10T00:09:49.559Z,11.31
2019-04-10T00:12:18.057Z,11.74
2019-04-10T00:14:46.589Z,11.20
2019-04-10T00:17:15.069Z,11.12
2019-04-10T00:19:43.754Z,11.41
2019-04-10T00:22:12.285Z,11.56
2019-04-10T00:24:41.033Z,11.54
2019-04-10T00:27:10.372Z,11.40
2019-04-10T00:29:40.400Z,11.59
2019-04-10T00:32:11.902Z,11.55
2019-04-10T00:34:40.395Z,11.53
2019-04-10T00:37:20.487Z,11.52
2019-04-10T00:39:39.280Z,11.62
2019-04-10T00:42:08.470Z,11.01
2019-04-10T00:44:37.520Z,11.08
2019-04-10T00:47:06.588Z,11.29
2019-04-10T00:49:35.080Z,11.49
2019-04-10T00:52:03.892Z,11.49
2019-04-10T00:54:33.063Z,11.23
2019-04-10T00:57:01.632Z,11.40
2019-04-10T00:59:30.364Z,11.60
2019-04-10T01:01:58.814Z,11.52
2019-04-10T01:04:27.291Z,11.45
2019-04-10T01:06:56.683Z,11.44
2019-04-10T01:09:25.606Z,11.63
2019-04-10T01:11:55.029Z,11.20
2019-04-10T01:14:23.724Z,11.47
2019-04-10T01:16:52.214Z,11.52
2019-04-10T01:19:20.778Z,11.34
2019-04-10T01:21:49.356Z,11.40
2019-04-10T01:24:17.759Z,11.36
2019-04-10T01:26:46.223Z,11.36
2019-04-10T01:29:15.479Z,11.19
2019-04-10T01:31:44.036Z,10.92
2019-04-10T01:34:13.525Z,11.09
2019-04-10T01:36:42.092Z,10.90
2019-04-10T01:39:12.209Z,11.25
2019-04-10T01:41:41.692Z,11.35
2019-04-10T01:44:11.101Z,11.35
2019-04-10T01:46:40.272Z,11.33
2019-04-10T01:49:09.252Z,11.41
2019-04-10T01:51:37.762Z,11.39
2019-04-10T01:54:06.892Z,11.28
2019-04-10T01:56:36.771Z,11.34
2019-04-10T01:59:05.747Z,10.71
2019-04-10T02:01:38.796Z,10.96
2019-04-10T02:04:07.322Z,11.18
2019-04-10T02:06:35.836Z,11.22
2019-04-10T02:09:07.402Z,11.10
2019-04-10T02:11:35.883Z,11.22
2019-04-10T02:14:04.308Z,11.17
2019-04-10T02:16:32.858Z,11.34
2019-04-10T02:19:01.658Z,11.18
2019-04-10T02:21:30.213Z,11.17
2019-04-10T02:23:58.727Z,11.17
2019-04-10T02:26:27.660Z,11.45
2019-04-10T02:28:56.078Z,11.24
2019-04-10T02:31:26.340Z,11.20
2019-04-10T02:33:56.952Z,11.11
2019-04-10T02:36:25.662Z,11.12
2019-04-10T02:39:10.012Z,11.20
2019-04-10T02:41:25.556Z,11.09
2019-04-10T02:43:55.468Z,11.12
2019-04-10T02:46:25.080Z,10.74
2019-04-10T02:48:54.337Z,11.08
2019-04-10T02:51:24.721Z,11.14
2019-04-10T02:53:55.512Z,11.14
2019-04-10T02:56:25.251Z,11.15
2019-04-10T02:58:54.343Z,11.12
2019-04-10T03:01:23.509Z,11.10
2019-04-10T03:03:54.779Z,11.05
2019-04-10T03:06:22.914Z,11.01
2019-04-10T03:09:07.949Z,11.06
2019-04-10T03:11:22.250Z,11.11
2019-04-10T03:13:53.285Z,10.60
2019-04-10T03:16:22.078Z,10.99
2019-04-10T03:18:50.527Z,10.76
2019-04-10T03:21:18.931Z,10.67
2019-04-10T03:23:47.608Z,10.96
2019-04-10T03:26:16.001Z,10.89
2019-04-10T03:28:44.580Z,11.02
2019-04-10T03:31:14.804Z,11.09
2019-04-10T03:33:47.518Z,10.92
2019-04-10T03:36:15.661Z,10.85
2019-04-10T03:38:55.264Z,10.91
2019-04-10T03:41:14.328Z,10.43
2019-04-10T03:43:43.755Z,10.80
2019-04-10T03:46:13.013Z,10.99
2019-04-10T03:48:41.517Z,10.92
2019-04-10T03:51:09.952Z,10.76
2019-04-10T03:53:38.352Z,10.99
2019-04-10T03:56:07.541Z,10.70
2019-04-10T03:58:35.988Z,10.82
2019-04-10T04:01:04.809Z,10.67
2019-04-10T04:03:33.302Z,10.14
2019-04-10T04:06:01.715Z,10.56
2019-04-10T04:08:30.230Z,10.72
2019-04-10T04:10:59.446Z,10.87
2019-04-10T04:13:28.030Z,10.92
2019-04-10T04:15:56.446Z,10.92
2019-04-10T04:18:24.967Z,10.85
2019-04-10T04:20:53.444Z,10.93
2019-04-10T04:23:21.948Z,11.07
2019-04-10T04:25:50.480Z,10.98
2019-04-10T04:28:18.951Z,10.93
2019-04-10T04:30:47.502Z,10.94
2019-04-10T04:33:15.947Z,10.73
2019-04-10T04:35:44.349Z,10.72
2019-04-10T04:38:13.449Z,10.80
2019-04-10T04:40:42.089Z,10.92
2019-04-10T04:43:10.542Z,10.86
2019-04-10T04:45:39.006Z,10.86
2019-04-10T04:48:07.762Z,10.80
2019-04-10T04:50:36.248Z,10.86
2019-04-10T04:53:04.692Z,10.84
2019-04-10T04:55:33.209Z,10.74
2019-04-10T04:58:01.948Z,10.86
2019-04-10T05:00:30.594Z,10.17
2019-04-10T05:02:59.793Z,10.60
2019-04-10T05:05:29.291Z,10.96
2019-04-10T05:08:02.224Z,10.89
2019-04-10T05:10:28.031Z,10.93
2019-04-10T05:12:57.767Z,10.74
2019-04-10T05:15:26.965Z,10.85
2019-04-10T05:17:55.643Z,10.90
2019-04-10T05:20:24.166Z,10.59
2019-04-10T05:22:54.547Z,10.73
2019-04-10T05:25:22.752Z,10.53
2019-04-10T05:27:51.200Z,10.81
2019-04-10T05:30:20.668Z,10.68
2019-04-10T05:32:49.370Z,10.74
2019-04-10T05:35:17.973Z,10.78
2019-04-10T05:37:46.430Z,10.47
2019-04-10T05:40:15.261Z,10.61
2019-04-10T05:42:44.938Z,10.32
2019-04-10T05:45:14.832Z,10.32
2019-04-10T05:47:44.437Z,10.74
2019-04-10T05:50:13.082Z,10.41
2019-04-10T05:52:41.473Z,10.48
2019-04-10T05:55:10.111Z,10.55
2019-04-10T05:57:38.532Z,10.71
2019-04-10T06:00:10.675Z,10.55
2019-04-10T06:02:39.806Z,10.60
2019-04-10T06:05:08.388Z,10.39
2019-04-10T06:07:37.145Z,10.28
2019-04-10T06:10:10.330Z,10.18
2019-04-10T06:12:38.378Z,10.51
2019-04-10T06:15:07.947Z,10.51
2019-04-10T06:17:36.377Z,10.60
2019-04-10T06:20:07.189Z,10.12
2019-04-10T06:22:37.303Z,9.94
2019-04-10T06:25:08.639Z,10.47
2019-04-10T06:27:36.768Z,10.10
2019-04-10T06:30:07.864Z,10.23
2019-04-10T06:32:37.580Z,10.15
2019-04-10T06:35:07.917Z,10.32
2019-04-10T06:37:36.515Z,10.21
2019-04-10T06:40:14.270Z,10.36
2019-04-10T06:42:46.450Z,10.15
2019-04-10T06:45:07.604Z,10.06
2019-04-10T06:47:36.276Z,10.33
2019-04-10T06:50:06.643Z,10.06
2019-04-10T06:52:35.334Z,10.10
2019-04-10T06:55:05.073Z,10.24
2019-04-10T06:57:45.128Z,10.29
2019-04-10T07:00:13.670Z,10.26
2019-04-10T07:02:40.027Z,10.24
2019-04-10T07:05:10.496Z,10.18
2019-04-10T07:07:49.516Z,9.88
2019-04-10T07:10:20.631Z,10.04
2019-04-10T07:12:39.850Z,10.11
2019-04-10T07:15:10.663Z,9.94
2019-04-10T07:17:41.162Z,10.15
2019-04-10T07:20:09.768Z,9.56
2019-04-10T07:22:43.274Z,10.04
2019-04-10T07:25:10.318Z,10.27
2019-04-10T07:27:40.494Z,10.15
2019-04-10T07:30:09.919Z,10.18
2019-04-10T07:32:41.218Z,10.11
2019-04-10T07:35:08.976Z,9.97
2019-04-10T07:37:37.660Z,9.97
2019-04-10T07:40:08.052Z,10.03
2019-04-10T07:42:39.722Z,10.02
2019-04-10T07:45:08.610Z,10.10
2019-04-10T07:47:38.004Z,9.80
2019-04-10T07:50:08.695Z,9.71
2019-04-10T07:52:37.439Z,9.80
2019-04-10T07:55:06.698Z,10.12
2019-04-10T07:57:36.332Z,9.90
2019-04-10T08:00:09.191Z,10.12
2019-04-10T08:02:38.504Z,10.31
2019-04-10T08:05:08.190Z,10.25
2019-04-10T08:07:38.835Z,9.90
2019-04-10T08:10:07.969Z,10.06
2019-04-10T08:12:43.281Z,10.70
2019-04-10T08:15:07.360Z,10.47
2019-04-10T08:17:36.838Z,10.46
2019-04-10T08:20:06.191Z,10.54
2019-04-10T08:22:34.990Z,10.89
2019-04-10T08:25:04.549Z,10.77
2019-04-10T08:27:34.040Z,10.86
2019-04-10T08:30:03.333Z,10.91
2019-04-10T08:32:32.234Z,11.01
2019-04-10T08:35:02.102Z,10.70
2019-04-10T08:37:30.653Z,11.20
2019-04-10T08:39:59.290Z,10.85
2019-04-10T08:42:27.740Z,10.64
2019-04-10T08:44:56.437Z,11.19
2019-04-10T08:47:25.017Z,10.97
2019-04-10T08:49:53.563Z,11.11
2019-04-10T08:52:22.113Z,11.17
2019-04-10T08:54:51.216Z,11.18
2019-04-10T08:57:19.731Z,11.04
2019-04-10T08:59:48.364Z,11.57
2019-04-10T09:02:18.036Z,11.21
2019-04-10T09:04:46.870Z,11.15
2019-04-10T09:07:15.885Z,11.39
2019-04-10T09:09:44.402Z,11.49
2019-04-10T09:12:13.588Z,11.78
2019-04-10T09:14:43.349Z,11.74
2019-04-10T09:17:11.887Z,11.42
2019-04-10T09:19:40.329Z,11.55
2019-04-10T09:22:09.990Z,11.37
2019-04-10T09:24:38.612Z,12.10
2019-04-10T09:27:07.198Z,12.43
2019-04-10T09:29:36.236Z,12.25
2019-04-10T09:32:04.647Z,12.20
2019-04-10T09:34:34.043Z,12.05
2019-04-10T09:37:02.527Z,12.16
2019-04-10T09:39:31.742Z,12.12
2019-04-10T09:42:01.228Z,11.88
2019-04-10T09:44:29.906Z,11.80
2019-04-10T09:46:58.323Z,11.97
2019-04-10T09:49:37.639Z,12.31
2019-04-10T09:51:58.627Z,12.09
2019-04-10T09:54:28.149Z,11.62
2019-04-10T09:56:57.086Z,11.60
2019-04-10T09:59:32.985Z,11.49
2019-04-10T10:01:56.361Z,11.17
2019-04-10T10:04:25.714Z,10.98
2019-04-10T10:06:54.283Z,12.04
2019-04-10T10:09:23.787Z,12.30
2019-04-10T10:11:53.431Z,12.15
2019-04-10T10:14:22.990Z,11.82
2019-04-10T10:16:52.617Z,12.05
2019-04-10T10:19:21.822Z,11.91
2019-04-10T10:21:50.549Z,11.40
2019-04-10T10:24:19.012Z,11.39
2019-04-10T10:26:47.458Z,11.92
2019-04-10T10:29:15.862Z,11.90
2019-04-10T10:31:44.516Z,11.84
2019-04-10T10:34:13.062Z,12.22
2019-04-10T10:36:45.906Z,11.85
2019-04-10T10:39:20.979Z,11.80
2019-04-10T10:41:50.938Z,11.85
2019-04-10T10:44:19.688Z,11.71
2019-04-10T16:20:06.977Z,13.83
2019-04-10T16:22:37.449Z,13.79
2019-04-10T16:25:11.564Z,13.77
2019-04-10T16:27:41.140Z,13.77
2019-04-10T16:30:15.562Z,13.75
2019-04-10T16:32:44.470Z,13.72
2019-04-10T16:35:13.912Z,13.75
2019-04-10T16:37:42.503Z,13.78
2019-04-10T16:40:11.802Z,13.84
2019-04-10T16:42:41.720Z,13.76
2019-04-10T16:45:10.943Z,13.56
2019-04-10T16:47:39.385Z,13.64
2019-04-10T16:50:09.165Z,13.58
2019-04-10T16:52:37.595Z,13.54
2019-04-10T16:55:08.383Z,13.53
2019-04-10T16:57:36.958Z,13.40
2019-04-10T17:00:09.013Z,13.37
2019-04-10T17:02:37.524Z,13.44
2019-04-10T17:05:08.187Z,13.44
2019-04-10T17:07:37.322Z,13.42
2019-04-10T17:10:16.047Z,13.40
2019-04-10T17:12:38.563Z,13.41
2019-04-10T17:15:10.260Z,13.41
2019-04-10T17:17:39.037Z,13.40
2019-04-10T17:20:08.656Z,13.40
2019-04-10T17:22:43.508Z,13.36
2019-04-10T17:25:07.731Z,13.31
2019-04-10T17:27:37.455Z,13.29
2019-04-10T17:30:07.769Z,13.18
2019-04-10T17:32:43.209Z,13.20
2019-04-10T17:35:13.769Z,13.16
2019-04-10T17:37:42.298Z,13.11
2019-04-10T17:40:25.131Z,13.05
2019-04-10T17:42:44.396Z,12.76
2019-04-10T17:45:14.213Z,12.93
2019-04-10T17:47:42.990Z,12.89
2019-04-10T17:50:14.160Z,12.80
2019-04-10T17:52:42.987Z,12.90
2019-04-10T17:55:11.751Z,12.76
2019-04-10T17:57:44.164Z,12.62
2019-04-10T18:00:21.139Z,12.75
2019-04-10T18:02:50.823Z,12.71
2019-04-10T18:05:20.361Z,12.72
2019-04-10T18:07:48.849Z,12.74
2019-04-10T18:10:17.562Z,12.67
2019-04-10T18:12:46.125Z,12.66
2019-04-10T18:15:15.734Z,12.38
2019-04-10T18:17:44.288Z,12.49
2019-04-10T18:20:12.779Z,12.59
2019-04-10T18:22:42.751Z,12.46
2019-04-10T18:25:14.186Z,12.54
2019-04-10T18:27:42.910Z,12.40
2019-04-10T18:30:12.100Z,12.39
2019-04-10T18:32:40.497Z,12.32
2019-04-10T18:35:09.046Z,12.34
2019-04-10T18:37:37.494Z,12.39
2019-04-10T18:40:07.499Z,12.38
2019-04-10T18:42:37.302Z,12.35
2019-04-10T18:45:09.167Z,12.20
2019-04-10T18:47:39.281Z,12.18
2019-04-10T18:50:08.209Z,12.10
2019-04-10T18:52:37.353Z,12.25
2019-04-10T18:55:07.901Z,11.92
2019-04-10T18:57:36.528Z,12.12
2019-04-10T19:00:10.139Z,12.12
2019-04-10T19:02:43.621Z,12.18
2019-04-10T19:05:25.687Z,11.84
2019-04-10T19:07:54.508Z,11.94
2019-04-10T19:10:23.096Z,12.12
2019-04-10T19:12:51.574Z,11.89
2019-04-10T19:15:20.438Z,12.01
2019-04-10T19:17:49.059Z,11.79
2019-04-10T19:20:17.970Z,11.93
2019-04-10T19:22:46.495Z,11.89
2019-04-10T19:25:15.147Z,11.67
2019-04-10T19:27:44.485Z,11.62
2019-04-10T19:30:33.840Z,11.77
2019-04-10T19:33:02.332Z,11.74
2019-04-10T19:35:31.113Z,11.66
2019-04-10T19:37:59.592Z,11.55
2019-04-10T19:40:28.063Z,11.59
2019-04-10T19:42:57.757Z,11.48
2019-04-10T19:45:27.948Z,11.38
2019-04-10T19:47:57.041Z,11.28
2019-04-10T19:50:25.592Z,11.46
2019-04-10T19:52:55.044Z,11.48
2019-04-10T19:55:23.981Z,11.33
2019-04-10T19:57:53.331Z,11.25
2019-04-10T20:00:24.243Z,11.29
2019-04-10T20:03:26.321Z,11.26
2019-04-10T20:05:55.553Z,11.25
2019-04-10T20:08:24.069Z,11.16
2019-04-10T20:10:52.598Z,10.94
2019-04-10T20:13:21.074Z,11.11
2019-04-10T20:15:49.549Z,11.25
2019-04-10T20:18:18.946Z,11.16
2019-04-10T20:20:47.802Z,10.80
2019-04-10T20:23:16.415Z,10.83
2019-04-10T20:25:44.828Z,11.02
2019-04-10T20:28:14.259Z,10.98
2019-04-10T20:30:42.795Z,10.98
2019-04-10T20:33:57.185Z,10.99
2019-04-10T20:36:25.867Z,10.73
2019-04-10T20:38:54.246Z,10.67
2019-04-10T20:41:22.686Z,10.63
2019-04-10T20:43:53.344Z,10.99
2019-04-10T20:46:22.276Z,10.84
2019-04-10T20:48:50.890Z,10.79
2019-04-10T20:51:19.342Z,10.74
2019-04-10T20:53:48.461Z,10.85
2019-04-10T20:56:18.306Z,10.85
2019-04-10T20:58:47.232Z,10.90
2019-04-10T21:01:16.759Z,10.78
2019-04-10T21:03:45.264Z,10.76
2019-04-10T21:06:13.801Z,10.48
2019-04-10T21:08:42.502Z,10.68
2019-04-10T21:11:11.722Z,10.33
2019-04-10T21:13:40.521Z,10.75
2019-04-10T21:16:09.264Z,10.66
2019-04-10T21:18:37.814Z,10.67
2019-04-10T21:21:06.244Z,10.64
2019-04-10T21:23:35.601Z,10.62
2019-04-10T21:26:04.330Z,10.43
2019-04-10T21:28:32.783Z,10.42
2019-04-10T21:31:05.399Z,10.39
2019-04-10T21:33:43.576Z,10.25
2019-04-10T21:36:12.024Z,10.36
2019-04-10T21:38:40.724Z,10.52
2019-04-10T21:41:10.878Z,10.28
2019-04-10T21:43:39.490Z,10.31
2019-04-10T21:46:08.310Z,10.23
2019-04-10T21:48:37.222Z,10.11
2019-04-10T21:51:06.700Z,10.16
2019-04-10T21:53:35.973Z,10.13
2019-04-10T21:56:06.254Z,10.03
2019-04-10T21:58:37.468Z,10.22
2019-04-10T22:01:09.848Z,10.06
2019-04-10T22:03:38.551Z,9.90
2019-04-10T22:06:09.297Z,9.89
2019-04-10T22:08:39.437Z,9.76
2019-04-10T22:11:08.550Z,9.67
2019-04-10T22:13:38.023Z,9.79
2019-04-10T22:16:09.266Z,9.85
2019-04-10T22:18:37.842Z,9.83
2019-04-10T22:21:08.303Z,9.99
2019-04-10T22:23:36.692Z,9.84
2019-04-10T22:26:05.274Z,9.84
2019-04-10T22:28:33.922Z,9.86
2019-04-10T22:31:02.383Z,9.77
2019-04-10T22:33:43.239Z,9.76
2019-04-10T22:36:12.797Z,9.83
2019-04-10T22:38:41.929Z,9.67
2019-04-10T22:41:22.926Z,9.54
2019-04-10T22:43:40.815Z,9.59
2019-04-10T22:46:09.270Z,9.54
2019-04-10T22:48:37.744Z,9.49
2019-04-10T22:51:08.062Z,9.62
2019-04-10T22:53:37.464Z,9.56
2019-04-10T22:56:06.963Z,9.57
2019-04-10T22:58:35.485Z,9.49
2019-04-10T23:01:04.741Z,9.52
2019-04-10T23:03:33.200Z,9.45
2019-04-10T23:06:01.668Z,9.47
2019-04-10T23:08:30.060Z,9.40
2019-04-10T23:10:59.502Z,9.39
2019-04-10T23:13:28.065Z,9.46
2019-04-10T23:15:57.753Z,9.18
2019-04-10T23:18:27.496Z,9.42
2019-04-10T23:20:57.022Z,9.23
2019-04-10T23:23:25.657Z,9.29
2019-04-10T23:25:54.056Z,9.37
2019-04-10T23:28:23.128Z,9.04
2019-04-10T23:30:51.700Z,9.28
2019-04-10T23:33:20.156Z,9.37
2019-04-10T23:35:49.626Z,8.98
2019-04-10T23:38:18.016Z,9.00
2019-04-10T23:40:47.275Z,9.07
2019-04-10T23:43:18.106Z,9.06
2019-04-10T23:45:46.069Z,9.02
2019-04-10T23:48:16.919Z,8.87
2019-04-10T23:50:46.138Z,8.81
2019-04-10T23:53:14.664Z,8.56
2019-04-10T23:55:43.082Z,8.85
2019-04-10T23:58:11.714Z,9.01
